Time;durP1;ratioP1;P1;durP2;ratioP2;P2;SDS_P1;SDS_P2;PMS_P1;PMS_P2;Temp;Humidity;BMP_temperature;BMP_pressure;BME280_temperature;BME280_humidity;BME280_pressure;Samples;Min_cycle;Max_cycle;Signal;HPM_P1;HPM_P2
2022/08/14 00:01:01;;;;;;;29.05;26.20;;;;;;;;;;5123159;28;20424;-79
2022/08/14 00:03:28;;;;;;;29.30;26.25;;;;;;;;;;5088986;28;20062;-79
2022/08/14 00:05:55;;;;;;;30.00;26.73;;;;;;;;;;5089097;28;20059;-79
2022/08/14 00:08:22;;;;;;;28.73;25.88;;;;;;;;;;5121250;27;20027;-76
2022/08/14 00:10:48;;;;;;;27.00;23.88;;;;;;;;;;5110916;28;20025;-78
2022/08/14 00:13:15;;;;;;;31.00;24.10;;;;;;;;;;5108558;28;20021;-78
2022/08/14 00:15:43;;;;;;;26.05;23.50;;;;;;;;;;5076059;28;20020;-77
2022/08/14 00:18:10;;;;;;;24.42;21.95;;;;;;;;;;5089006;28;20031;-77
2022/08/14 00:20:37;;;;;;;23.23;20.92;;;;;;;;;;5122736;28;20044;-76
2022/08/14 00:23:03;;;;;;;24.48;22.10;;;;;;;;;;5112061;28;20024;-76
2022/08/14 00:25:29;;;;;;;22.15;20.05;;;;;;;;;;5119711;27;20023;-77
2022/08/14 00:27:55;;;;;;;24.60;22.17;;;;;;;;;;5089076;28;20021;-79
2022/08/14 00:30:22;;;;;;;25.95;23.27;;;;;;;;;;5108181;28;20024;-78
2022/08/14 00:32:48;;;;;;;23.25;20.60;;;;;;;;;;5088940;28;20101;-79
2022/08/14 00:35:14;;;;;;;24.17;21.98;;;;;;;;;;5077252;28;20020;-78
2022/08/14 00:37:41;;;;;;;23.05;20.67;;;;;;;;;;5103230;28;20065;-78
2022/08/14 00:40:08;;;;;;;24.75;22.42;;;;;;;;;;5112134;28;20029;-77
2022/08/14 00:42:34;;;;;;;23.00;19.20;;;;;;;;;;5106005;28;20024;-77
2022/08/14 00:45:00;;;;;;;23.42;21.25;;;;;;;;;;5122872;28;20027;-78
2022/08/14 00:47:26;;;;;;;21.55;19.45;;;;;;;;;;5088615;28;20107;-79
2022/08/14 00:49:55;;;;;;;20.40;18.38;;;;;;;;;;5117411;27;20020;-78
2022/08/14 00:52:21;;;;;;;20.77;18.73;;;;;;;;;;5126609;27;20040;-77
2022/08/14 00:54:55;;;;;;;18.92;17.02;;;;;;;;;;5126485;27;20115;-77
2022/08/14 00:57:23;;;;;;;19.33;17.48;;;;;;;;;;5116707;27;20021;-80
2022/08/14 00:59:50;;;;;;;17.98;16.10;;;;;;;;;;5087609;28;20024;-79
2022/08/14 01:02:17;;;;;;;19.90;17.55;;;;;;;;;;5092965;28;20035;-78
2022/08/14 01:04:44;;;;;;;18.00;15.68;;;;;;;;;;5092349;28;20020;-78
2022/08/14 01:07:10;;;;;;;16.27;14.68;;;;;;;;;;5092098;28;20020;-78
2022/08/14 01:09:36;;;;;;;18.85;17.05;;;;;;;;;;5092182;28;20356;-78
2022/08/14 01:12:03;;;;;;;18.33;16.52;;;;;;;;;;5093090;28;20440;-78
2022/08/14 01:14:29;;;;;;;17.70;16.00;;;;;;;;;;5093523;28;20038;-77
2022/08/14 01:16:55;;;;;;;20.25;18.10;;;;;;;;;;5092851;28;20024;-79
2022/08/14 01:22:06;;;;;;;20.30;16.05;;;;;;;;;;5090202;28;20407;-79
2022/08/14 01:24:33;;;;;;;16.42;14.75;;;;;;;;;;5126080;27;20126;-80
2022/08/14 01:26:59;;;;;;;16.92;15.13;;;;;;;;;;5125769;27;20127;-79
2022/08/14 01:29:26;;;;;;;16.35;14.75;;;;;;;;;;5091704;28;20028;-79
2022/08/14 01:31:52;;;;;;;18.63;16.83;;;;;;;;;;5091642;28;20072;-79
2022/08/14 01:34:24;;;;;;;22.50;20.45;;;;;;;;;;5125595;27;20421;-78
2022/08/14 01:36:52;;;;;;;22.67;19.90;;;;;;;;;;5091435;28;20039;-78
2022/08/14 01:39:19;;;;;;;22.65;20.27;;;;;;;;;;5091161;28;20024;-77
2022/08/14 01:41:55;;;;;;;24.10;21.13;;;;;;;;;;5091549;28;20169;-78
2022/08/14 01:44:23;;;;;;;26.55;23.70;;;;;;;;;;5091262;28;20024;-78
2022/08/14 01:46:53;;;;;;;22.85;20.55;;;;;;;;;;5125737;27;20062;-78
2022/08/14 01:49:19;;;;;;;23.77;21.38;;;;;;;;;;5125316;27;20493;-78
2022/08/14 01:51:47;;;;;;;21.70;19.52;;;;;;;;;;5091081;28;20103;-77
2022/08/14 01:54:22;;;;;;;21.67;19.50;;;;;;;;;;5125241;27;20096;-78
2022/08/14 01:56:51;;;;;;;23.00;19.90;;;;;;;;;;5120471;27;20030;-79
2022/08/14 01:59:18;;;;;;;22.00;19.83;;;;;;;;;;5117431;27;20024;-76
2022/08/14 02:01:44;;;;;;;25.17;20.02;;;;;;;;;;5091841;28;20028;-78
2022/08/14 02:04:11;;;;;;;22.25;19.23;;;;;;;;;;5090974;28;20016;-77
2022/08/14 02:06:38;;;;;;;23.60;19.42;;;;;;;;;;5092414;28;20016;-77
2022/08/14 02:09:05;;;;;;;22.25;19.95;;;;;;;;;;5124783;27;20028;-78
2022/08/14 02:11:33;;;;;;;19.70;17.77;;;;;;;;;;5091115;28;20110;-77
2022/08/14 02:13:59;;;;;;;23.48;18.27;;;;;;;;;;5091130;28;20024;-79
2022/08/14 02:16:28;;;;;;;24.50;17.55;;;;;;;;;;5125067;27;20047;-77
2022/08/14 02:18:56;;;;;;;19.40;17.52;;;;;;;;;;5087625;28;20471;-79
2022/08/14 02:21:22;;;;;;;19.58;17.52;;;;;;;;;;5082788;28;20044;-78
2022/08/14 02:23:49;;;;;;;28.85;17.33;;;;;;;;;;5088321;28;20364;-79
2022/08/14 02:26:29;;;;;;;21.13;18.98;;;;;;;;;;5081109;28;20031;-80
2022/08/14 02:28:58;;;;;;;22.17;18.88;;;;;;;;;;5124372;27;20024;-79
2022/08/14 02:31:31;;;;;;;20.02;17.88;;;;;;;;;;5091732;28;20443;-78
2022/08/14 02:33:58;;;;;;;25.08;18.35;;;;;;;;;;5121601;27;20016;-79
2022/08/14 02:36:25;;;;;;;21.98;18.58;;;;;;;;;;5112906;27;20072;-79
2022/08/14 02:38:52;;;;;;;22.65;20.08;;;;;;;;;;5077380;28;20021;-79
2022/08/14 02:41:18;;;;;;;21.50;19.30;;;;;;;;;;5124204;27;20028;-79
2022/08/14 02:43:44;;;;;;;20.58;18.58;;;;;;;;;;5124349;27;20020;-79
2022/08/14 02:46:11;;;;;;;20.40;18.50;;;;;;;;;;5091220;28;20027;-79
2022/08/14 02:48:40;;;;;;;22.58;20.30;;;;;;;;;;5124046;27;20952;-78
2022/08/14 02:51:09;;;;;;;24.33;21.27;;;;;;;;;;5089964;28;20028;-78
2022/08/14 02:53:37;;;;;;;23.02;20.27;;;;;;;;;;5109900;27;20013;-79
2022/08/14 02:56:03;;;;;;;20.80;18.80;;;;;;;;;;5090235;28;20093;-79
2022/08/14 02:58:29;;;;;;;20.98;18.77;;;;;;;;;;5124011;27;20521;-78
2022/08/14 03:00:56;;;;;;;23.55;21.13;;;;;;;;;;5123904;27;20028;-77
2022/08/14 03:03:23;;;;;;;19.75;17.63;;;;;;;;;;5088478;28;20479;-77
2022/08/14 03:05:51;;;;;;;20.77;18.77;;;;;;;;;;5080424;28;20020;-78
2022/08/14 03:08:17;;;;;;;19.58;17.65;;;;;;;;;;5123963;27;20020;-78
2022/08/14 03:10:45;;;;;;;20.25;18.15;;;;;;;;;;5091206;28;20095;-76
2022/08/14 03:13:11;;;;;;;21.65;18.17;;;;;;;;;;5090990;28;20103;-76
2022/08/14 03:15:55;;;;;;;19.48;17.65;;;;;;;;;;5085520;28;20074;-76
2022/08/14 03:18:22;;;;;;;20.02;17.77;;;;;;;;;;5117772;27;20110;-77
2022/08/14 03:20:48;;;;;;;17.70;15.90;;;;;;;;;;5109431;27;20423;-76
2022/08/14 03:23:15;;;;;;;20.00;18.10;;;;;;;;;;5078531;28;20020;-76
2022/08/14 03:25:41;;;;;;;19.95;17.85;;;;;;;;;;5122146;27;20022;-77
2022/08/14 03:28:08;;;;;;;22.38;20.30;;;;;;;;;;5090961;28;20031;-76
2022/08/14 03:30:35;;;;;;;23.45;20.95;;;;;;;;;;5090416;28;20020;-79
2022/08/14 03:33:01;;;;;;;22.58;20.23;;;;;;;;;;5090963;28;20536;-77
2022/08/14 03:35:29;;;;;;;29.75;20.67;;;;;;;;;;5089369;28;20395;-78
2022/08/14 03:37:56;;;;;;;19.02;17.15;;;;;;;;;;5090712;28;20012;-78
2022/08/14 03:40:23;;;;;;;19.38;17.55;;;;;;;;;;5076035;28;20048;-78
2022/08/14 03:42:50;;;;;;;20.75;18.00;;;;;;;;;;5084804;28;20048;-77
2022/08/14 03:45:17;;;;;;;20.75;18.75;;;;;;;;;;5086049;28;20028;-79
2022/08/14 03:47:43;;;;;;;20.45;18.38;;;;;;;;;;5086948;28;20016;-78
2022/08/14 03:50:10;;;;;;;22.60;20.30;;;;;;;;;;5076461;28;20020;-78
2022/08/14 03:52:37;;;;;;;23.88;21.10;;;;;;;;;;5123290;27;20037;-78
2022/08/14 03:55:05;;;;;;;26.45;21.00;;;;;;;;;;5108817;28;20383;-77
2022/08/14 03:57:31;;;;;;;25.55;22.90;;;;;;;;;;5090955;28;20493;-78
2022/08/14 04:00:02;;;;;;;26.77;23.75;;;;;;;;;;5106172;28;20012;-77
2022/08/14 04:02:28;;;;;;;25.70;23.00;;;;;;;;;;5089081;28;20467;-78
2022/08/14 04:04:54;;;;;;;28.08;22.50;;;;;;;;;;5076364;28;20471;-77
2022/08/14 04:07:21;;;;;;;24.48;22.10;;;;;;;;;;5091212;28;20047;-77
2022/08/14 04:09:47;;;;;;;26.60;23.95;;;;;;;;;;5123190;28;20387;-78
2022/08/14 04:12:13;;;;;;;28.48;23.30;;;;;;;;;;5123027;28;20020;-77
2022/08/14 04:14:39;;;;;;;26.55;23.55;;;;;;;;;;5123040;27;20020;-79
2022/08/14 04:17:05;;;;;;;25.58;22.90;;;;;;;;;;5119220;27;20017;-78
2022/08/14 04:19:31;;;;;;;27.90;25.08;;;;;;;;;;5078682;28;20078;-78
2022/08/14 04:21:58;;;;;;;26.77;24.15;;;;;;;;;;5088437;28;20055;-77
2022/08/14 04:24:24;;;;;;;26.00;23.45;;;;;;;;;;5090189;28;20020;-80
2022/08/14 04:26:50;;;;;;;25.02;22.63;;;;;;;;;;5093566;28;20106;-80
2022/08/14 04:29:16;;;;;;;25.08;22.42;;;;;;;;;;5094382;28;20432;-79
2022/08/14 04:31:43;;;;;;;28.00;25.15;;;;;;;;;;5114986;27;20384;-79
2022/08/14 04:34:09;;;;;;;25.88;23.30;;;;;;;;;;5091890;28;20099;-79
2022/08/14 04:43:34;;;;;;;24.90;22.27;;;;;;;;;;5093996;28;20027;-78
2022/08/14 04:44:51;;;;;;;24.38;21.88;;;;;;;;;;5093937;28;20070;-78
2022/08/14 04:50:05;;;;;;;25.25;22.67;;;;;;;;;;5093736;28;20043;-80
2022/08/14 04:52:31;;;;;;;26.73;23.00;;;;;;;;;;5126591;27;20024;-78
2022/08/14 04:54:58;;;;;;;24.63;22.13;;;;;;;;;;5126251;27;20106;-80
2022/08/14 04:57:24;;;;;;;24.58;21.27;;;;;;;;;;5092140;28;20074;-79
2022/08/14 04:59:53;;;;;;;22.70;20.40;;;;;;;;;;5126198;27;20020;-78
2022/08/14 05:02:23;;;;;;;23.08;20.75;;;;;;;;;;5093493;28;20479;-78
2022/08/14 05:04:49;;;;;;;25.50;21.98;;;;;;;;;;5126132;27;20024;-79
2022/08/14 05:07:15;;;;;;;26.42;22.73;;;;;;;;;;5092230;28;20023;-77
2022/08/14 05:09:41;;;;;;;23.98;21.33;;;;;;;;;;5092056;28;20459;-80
2022/08/14 05:12:07;;;;;;;24.02;21.52;;;;;;;;;;5121173;27;20127;-78
2022/08/14 05:14:34;;;;;;;22.58;20.40;;;;;;;;;;5083797;28;20395;-77
2022/08/14 05:17:00;;;;;;;22.17;19.95;;;;;;;;;;5125909;27;20016;-78
2022/08/14 05:19:26;;;;;;;24.02;21.52;;;;;;;;;;5091880;28;20024;-77
2022/08/14 05:21:57;;;;;;;22.38;20.10;;;;;;;;;;5091709;28;20052;-79
2022/08/14 05:24:23;;;;;;;26.80;23.70;;;;;;;;;;5093444;28;20073;-78
2022/08/14 05:26:49;;;;;;;24.75;22.23;;;;;;;;;;5125942;27;20035;-79
2022/08/14 05:29:16;;;;;;;24.98;22.58;;;;;;;;;;5125655;27;20028;-78
2022/08/14 05:31:42;;;;;;;26.17;23.48;;;;;;;;;;5092723;28;20016;-77
2022/08/14 05:34:09;;;;;;;27.98;24.27;;;;;;;;;;5111204;27;20202;-78
2022/08/14 05:36:35;;;;;;;25.85;23.23;;;;;;;;;;5124800;27;20376;-78
2022/08/14 05:39:02;;;;;;;24.65;22.17;;;;;;;;;;5124993;27;20016;-78
2022/08/14 05:41:28;;;;;;;26.08;23.48;;;;;;;;;;5117263;27;20499;-78
2022/08/14 05:43:54;;;;;;;22.95;20.52;;;;;;;;;;5087024;28;20608;-78
2022/08/14 05:46:23;;;;;;;26.63;23.67;;;;;;;;;;5089031;28;20029;-78
2022/08/14 05:48:51;;;;;;;25.70;23.15;;;;;;;;;;5125452;27;20159;-76
2022/08/14 05:51:18;;;;;;;25.45;22.77;;;;;;;;;;5124146;27;20152;-79
2022/08/14 05:53:44;;;;;;;25.60;23.05;;;;;;;;;;5104680;27;20413;-79
2022/08/14 05:56:10;;;;;;;26.48;23.70;;;;;;;;;;5118869;27;20026;-79
2022/08/14 05:58:36;;;;;;;27.95;23.65;;;;;;;;;;5119435;27;20052;-80
2022/08/14 06:01:03;;;;;;;25.10;22.50;;;;;;;;;;5116580;27;20040;-78
2022/08/14 06:03:29;;;;;;;24.20;21.48;;;;;;;;;;5125084;27;20495;-78
2022/08/14 06:05:55;;;;;;;22.90;20.60;;;;;;;;;;5090862;28;20415;-77
2022/08/14 06:08:28;;;;;;;25.25;22.58;;;;;;;;;;5090315;28;20020;-79
2022/08/14 06:10:56;;;;;;;26.42;23.83;;;;;;;;;;5113743;27;20028;-79
2022/08/14 06:13:22;;;;;;;26.98;24.23;;;;;;;;;;5090711;28;20027;-79
2022/08/14 06:15:49;;;;;;;26.83;24.23;;;;;;;;;;5092427;28;20027;-78
2022/08/14 06:18:16;;;;;;;27.40;24.45;;;;;;;;;;5090591;28;20020;-79
2022/08/14 06:20:43;;;;;;;25.25;22.85;;;;;;;;;;5090307;28;20475;-79
2022/08/14 06:23:09;;;;;;;25.77;23.05;;;;;;;;;;5090571;28;20016;-80
2022/08/14 06:25:35;;;;;;;29.75;26.88;;;;;;;;;;5091915;28;20031;-77
2022/08/14 06:28:01;;;;;;;32.30;28.90;;;;;;;;;;5114787;27;20025;-77
2022/08/14 06:30:28;;;;;;;29.27;26.17;;;;;;;;;;5119976;27;20020;-77
2022/08/14 06:32:54;;;;;;;28.17;24.88;;;;;;;;;;5124364;27;20149;-77
2022/08/14 06:35:22;;;;;;;27.50;24.63;;;;;;;;;;5124459;27;20498;-76
2022/08/14 06:37:48;;;;;;;25.80;23.13;;;;;;;;;;5076343;28;20020;-76
2022/08/14 06:40:16;;;;;;;24.40;21.88;;;;;;;;;;5091301;28;20383;-76
2022/08/14 06:42:42;;;;;;;25.60;23.13;;;;;;;;;;5105168;27;20561;-76
2022/08/14 06:45:08;;;;;;;27.00;24.17;;;;;;;;;;5081865;28;20028;-78
2022/08/14 06:47:35;;;;;;;26.95;23.25;;;;;;;;;;5124385;27;20025;-77
2022/08/14 06:50:03;;;;;;;24.98;22.35;;;;;;;;;;5090916;28;20025;-77
2022/08/14 06:52:29;;;;;;;26.80;23.95;;;;;;;;;;5112682;27;20070;-79
2022/08/14 06:54:56;;;;;;;30.38;23.95;;;;;;;;;;5120792;27;20013;-77
2022/08/14 06:57:22;;;;;;;31.15;27.95;;;;;;;;;;5124090;27;20020;-76
2022/08/14 06:59:48;;;;;;;30.65;27.38;;;;;;;;;;5077121;28;20020;-77
2022/08/14 07:07:45;;;;;;;29.27;25.92;;;;;;;;;;5090979;28;20085;-80
2022/08/14 07:10:11;;;;;;;31.85;28.40;;;;;;;;;;5076517;28;20123;-78
2022/08/14 07:12:37;;;;;;;32.92;28.75;;;;;;;;;;5123686;27;20042;-79
2022/08/14 07:15:03;;;;;;;33.38;28.65;;;;;;;;;;5090565;28;20071;-78
2022/08/14 07:17:30;;;;;;;30.80;27.55;;;;;;;;;;5123514;27;20020;-78
2022/08/14 07:19:56;;;;;;;31.15;27.85;;;;;;;;;;5090725;28;20051;-79
2022/08/14 07:22:22;;;;;;;31.88;27.45;;;;;;;;;;5123155;27;20483;-78
2022/08/14 07:24:48;;;;;;;40.08;32.63;;;;;;;;;;5123230;27;20432;-78
2022/08/14 07:27:14;;;;;;;39.55;35.28;;;;;;;;;;5090777;28;20095;-79
2022/08/14 07:29:41;;;;;;;48.08;37.45;;;;;;;;;;5089226;28;20383;-77
2022/08/14 07:32:10;;;;;;;48.42;38.65;;;;;;;;;;5123072;27;20028;-79
2022/08/14 07:34:36;;;;;;;51.70;40.80;;;;;;;;;;5123711;27;20500;-78
2022/08/14 07:37:02;;;;;;;49.03;40.03;;;;;;;;;;5090435;28;20030;-78
2022/08/14 07:39:28;;;;;;;46.13;38.45;;;;;;;;;;5122882;27;20117;-77
2022/08/14 07:41:54;;;;;;;42.25;37.53;;;;;;;;;;5123125;27;20047;-79
2022/08/14 07:44:20;;;;;;;42.33;35.15;;;;;;;;;;5108619;27;20024;-77
2022/08/14 07:46:46;;;;;;;39.58;33.47;;;;;;;;;;5088822;28;20016;-77
2022/08/14 07:49:13;;;;;;;37.30;31.95;;;;;;;;;;5090529;28;20028;-79
2022/08/14 07:51:39;;;;;;;35.97;31.60;;;;;;;;;;5108494;27;20103;-78
2022/08/14 07:54:06;;;;;;;33.28;29.42;;;;;;;;;;5090043;28;20024;-77
2022/08/14 07:56:32;;;;;;;31.08;27.58;;;;;;;;;;5108641;28;20021;-78
2022/08/14 07:58:58;;;;;;;32.08;28.58;;;;;;;;;;5090008;28;20021;-78
2022/08/14 08:01:25;;;;;;;34.55;27.55;;;;;;;;;;5125075;27;20044;-77
2022/08/14 08:03:51;;;;;;;30.15;26.77;;;;;;;;;;5127131;27;20016;-78
2022/08/14 08:06:17;;;;;;;29.17;23.23;;;;;;;;;;5127175;27;20050;-78
2022/08/14 08:08:44;;;;;;;32.42;26.73;;;;;;;;;;5122316;27;20023;-77
2022/08/14 08:11:11;;;;;;;29.42;26.27;;;;;;;;;;5106721;27;20028;-79
2022/08/14 08:13:41;;;;;;;30.60;26.55;;;;;;;;;;5124193;27;20070;-77
2022/08/14 08:16:07;;;;;;;29.30;26.20;;;;;;;;;;5117024;27;20056;-80
2022/08/14 08:18:33;;;;;;;24.33;21.83;;;;;;;;;;5120586;27;20525;-78
2022/08/14 08:20:59;;;;;;;24.02;21.63;;;;;;;;;;5113772;27;20058;-79
2022/08/14 08:23:27;;;;;;;26.65;23.77;;;;;;;;;;5093742;28;20391;-80
2022/08/14 08:25:54;;;;;;;29.00;25.90;;;;;;;;;;5078772;28;20098;-79
2022/08/14 08:28:23;;;;;;;31.02;25.55;;;;;;;;;;5092542;28;20024;-78
2022/08/14 08:30:55;;;;;;;23.77;21.27;;;;;;;;;;5092481;28;20012;-80
2022/08/14 08:33:22;;;;;;;23.63;21.23;;;;;;;;;;5114978;27;20356;-80
2022/08/14 08:35:49;;;;;;;27.80;22.05;;;;;;;;;;5124035;27;20012;-79
2022/08/14 08:38:19;;;;;;;25.02;22.38;;;;;;;;;;5126347;27;20065;-79
2022/08/14 08:40:47;;;;;;;24.70;22.08;;;;;;;;;;5093810;28;20051;-77
2022/08/14 08:43:17;;;;;;;23.67;21.17;;;;;;;;;;5084966;28;20032;-78
2022/08/14 08:45:43;;;;;;;26.05;20.77;;;;;;;;;;5089094;28;20028;-79
2022/08/14 08:48:09;;;;;;;23.27;20.35;;;;;;;;;;5092293;28;20019;-79
2022/08/14 08:50:37;;;;;;;19.23;17.17;;;;;;;;;;5093357;28;20016;-79
2022/08/14 08:53:04;;;;;;;21.00;18.73;;;;;;;;;;5093307;28;20510;-79
2022/08/14 08:55:32;;;;;;;20.52;18.02;;;;;;;;;;5093639;28;20060;-78
2022/08/14 08:57:59;;;;;;;15.88;14.32;;;;;;;;;;5111649;27;20048;-78
2022/08/14 09:00:28;;;;;;;20.75;18.15;;;;;;;;;;5093380;28;20072;-80
2022/08/14 09:03:01;;;;;;;18.25;16.38;;;;;;;;;;5126317;27;20120;-79
2022/08/14 09:05:28;;;;;;;19.45;17.40;;;;;;;;;;5111862;27;20175;-78
2022/08/14 09:07:54;;;;;;;17.02;15.43;;;;;;;;;;5093033;28;20470;-79
2022/08/14 09:10:20;;;;;;;19.33;17.40;;;;;;;;;;5125863;27;20044;-78
2022/08/14 09:12:46;;;;;;;19.60;17.17;;;;;;;;;;5125812;27;20028;-77
2022/08/14 09:15:12;;;;;;;18.45;16.55;;;;;;;;;;5125578;27;20024;-77
2022/08/14 09:17:39;;;;;;;17.77;15.98;;;;;;;;;;5126508;27;20020;-78
2022/08/14 09:20:05;;;;;;;17.40;15.65;;;;;;;;;;5125769;27;20100;-78
2022/08/14 09:22:31;;;;;;;19.60;17.55;;;;;;;;;;5092990;28;20039;-78
2022/08/14 09:24:58;;;;;;;17.83;16.13;;;;;;;;;;5093427;28;20021;-77
2022/08/14 09:27:24;;;;;;;18.48;16.42;;;;;;;;;;5092814;28;20467;-77
2022/08/14 09:29:51;;;;;;;20.20;18.10;;;;;;;;;;5093388;28;20020;-78
2022/08/14 09:32:22;;;;;;;19.30;17.25;;;;;;;;;;5125506;27;20024;-78
2022/08/14 09:35:00;;;;;;;17.73;15.93;;;;;;;;;;5091654;28;20024;-78
2022/08/14 09:37:26;;;;;;;18.20;16.35;;;;;;;;;;5091309;28;20028;-79
2022/08/14 09:40:01;;;;;;;19.52;17.48;;;;;;;;;;5092779;28;20020;-78
2022/08/14 09:42:46;;;;;;;20.13;18.13;;;;;;;;;;5122742;27;20044;-78
2022/08/14 09:45:14;;;;;;;19.58;17.58;;;;;;;;;;5083366;28;20031;-80
2022/08/14 09:47:43;;;;;;;19.73;17.77;;;;;;;;;;5092652;28;20030;-79
2022/08/14 09:50:16;;;;;;;18.45;16.70;;;;;;;;;;5091286;28;20486;-79
2022/08/14 09:52:51;;;;;;;20.05;17.98;;;;;;;;;;5091284;28;20028;-79
2022/08/14 09:55:21;;;;;;;19.05;17.15;;;;;;;;;;5091514;28;20560;-78
2022/08/14 09:57:47;;;;;;;21.60;19.17;;;;;;;;;;5125120;27;20053;-76
2022/08/14 10:00:15;;;;;;;17.83;16.02;;;;;;;;;;5092241;28;20018;-79
2022/08/14 10:02:53;;;;;;;20.58;18.50;;;;;;;;;;5126414;27;20107;-78
2022/08/14 10:05:29;;;;;;;20.13;17.77;;;;;;;;;;5125222;27;20024;-79
2022/08/14 10:07:55;;;;;;;18.88;17.08;;;;;;;;;;5112854;27;20039;-77
2022/08/14 10:10:29;;;;;;;20.77;18.70;;;;;;;;;;5091286;28;20097;-78
2022/08/14 10:12:56;;;;;;;22.63;19.80;;;;;;;;;;5125186;27;20024;-79
2022/08/14 10:15:24;;;;;;;20.98;18.80;;;;;;;;;;5110320;27;20020;-79
2022/08/14 10:17:52;;;;;;;24.15;21.10;;;;;;;;;;5126000;27;20024;-79
2022/08/14 10:20:21;;;;;;;21.80;19.60;;;;;;;;;;5125011;27;20055;-79
2022/08/14 10:22:49;;;;;;;23.17;20.77;;;;;;;;;;5125213;27;20085;-79
2022/08/14 10:25:16;;;;;;;21.50;19.20;;;;;;;;;;5110813;27;20016;-80
2022/08/14 10:27:49;;;;;;;20.08;18.08;;;;;;;;;;5125823;27;20444;-79
2022/08/14 10:30:17;;;;;;;22.35;20.25;;;;;;;;;;5125729;27;20017;-79
2022/08/14 10:32:47;;;;;;;21.90;19.80;;;;;;;;;;5077171;28;20521;-79
2022/08/14 10:35:14;;;;;;;19.88;17.95;;;;;;;;;;5111744;27;20027;-81
2022/08/14 10:37:45;;;;;;;23.25;19.38;;;;;;;;;;5103980;28;20062;-79
2022/08/14 10:40:11;;;;;;;21.02;18.80;;;;;;;;;;5116383;27;20020;-79
2022/08/14 10:42:39;;;;;;;20.75;18.63;;;;;;;;;;5087510;28;20036;-77
2022/08/14 10:45:24;;;;;;;20.33;18.00;;;;;;;;;;5081444;28;20024;-80
2022/08/14 10:47:54;;;;;;;18.92;16.92;;;;;;;;;;5122981;27;20028;-78
2022/08/14 10:50:33;;;;;;;20.63;16.63;;;;;;;;;;5103721;28;20017;-78
2022/08/14 10:53:00;;;;;;;20.20;18.10;;;;;;;;;;5100486;28;20025;-85
2022/08/14 10:55:38;;;;;;;20.42;17.73;;;;;;;;;;5126154;27;20024;-77
2022/08/14 10:58:08;;;;;;;23.38;19.90;;;;;;;;;;5127082;27;20035;-79
2022/08/14 11:00:35;;;;;;;28.33;20.15;;;;;;;;;;5126285;27;20509;-82
2022/08/14 11:03:01;;;;;;;24.23;19.67;;;;;;;;;;5092153;28;20478;-85
2022/08/14 11:05:40;;;;;;;26.58;20.45;;;;;;;;;;5090828;28;20023;-83
2022/08/14 11:08:06;;;;;;;28.67;21.77;;;;;;;;;;5090924;28;20035;-84
2022/08/14 11:10:45;;;;;;;26.08;21.17;;;;;;;;;;5111847;27;20046;-86
2022/08/14 11:13:16;;;;;;;22.85;19.30;;;;;;;;;;5078732;28;20475;-84
2022/08/14 11:15:42;;;;;;;20.77;18.58;;;;;;;;;;5071123;28;20028;-85
2022/08/14 11:18:11;;;;;;;17.98;16.27;;;;;;;;;;5085144;28;20027;-85
2022/08/14 11:20:38;;;;;;;20.42;18.17;;;;;;;;;;5090380;28;20040;-84
2022/08/14 11:23:06;;;;;;;18.77;16.48;;;;;;;;;;5091075;28;20024;-84
2022/08/14 11:25:32;;;;;;;19.65;15.82;;;;;;;;;;5125069;27;20020;-81
2022/08/14 11:27:59;;;;;;;19.48;16.48;;;;;;;;;;5124883;27;20073;-83
2022/08/14 11:30:27;;;;;;;17.48;15.20;;;;;;;;;;5090589;28;20027;-81
2022/08/14 11:32:55;;;;;;;16.63;13.38;;;;;;;;;;5124608;27;20127;-80
2022/08/14 11:35:23;;;;;;;16.65;14.18;;;;;;;;;;5124524;27;20418;-78
2022/08/14 11:37:55;;;;;;;15.02;13.45;;;;;;;;;;5076929;28;20020;-80
2022/08/14 11:40:22;;;;;;;18.38;15.55;;;;;;;;;;5124516;27;20056;-80
2022/08/14 11:42:49;;;;;;;24.02;15.77;;;;;;;;;;5124365;27;20035;-83
2022/08/14 11:45:17;;;;;;;15.13;11.57;;;;;;;;;;5089922;28;20074;-79
2022/08/14 11:47:44;;;;;;;13.23;11.98;;;;;;;;;;5089433;28;20112;-78
2022/08/14 11:50:16;;;;;;;16.23;14.48;;;;;;;;;;5089940;28;20107;-79
2022/08/14 11:52:43;;;;;;;17.35;14.65;;;;;;;;;;5090200;28;20059;-80
2022/08/14 11:55:11;;;;;;;22.20;15.45;;;;;;;;;;5086030;28;20033;-78
2022/08/14 11:57:38;;;;;;;15.80;13.45;;;;;;;;;;5114694;28;20028;-79
2022/08/14 12:00:09;;;;;;;19.75;14.95;;;;;;;;;;5089385;28;20556;-77
2022/08/14 12:02:35;;;;;;;20.08;15.90;;;;;;;;;;5080445;28;20041;-82
2022/08/14 12:05:02;;;;;;;16.08;13.43;;;;;;;;;;5089053;28;20021;-82
2022/08/14 12:07:28;;;;;;;16.60;12.70;;;;;;;;;;5124604;28;20587;-84
2022/08/14 12:09:56;;;;;;;17.63;13.50;;;;;;;;;;5089354;28;20043;-83
2022/08/14 12:12:24;;;;;;;14.18;12.30;;;;;;;;;;5104039;28;20024;-82
2022/08/14 12:14:58;;;;;;;17.70;12.95;;;;;;;;;;5117413;27;20101;-85
2022/08/14 12:17:25;;;;;;;14.85;13.32;;;;;;;;;;5080269;28;20518;-83
2022/08/14 12:19:53;;;;;;;17.42;15.45;;;;;;;;;;5089742;28;20047;-82
2022/08/14 12:22:40;;;;;;;15.50;12.65;;;;;;;;;;5089965;28;20024;-84
2022/08/14 12:25:07;;;;;;;19.60;15.57;;;;;;;;;;5089931;28;20142;-84
2022/08/14 12:27:43;;;;;;;21.17;17.73;;;;;;;;;;5109728;28;20110;-85
2022/08/14 12:30:12;;;;;;;23.13;17.63;;;;;;;;;;5124305;27;20024;-86
2022/08/14 12:32:42;;;;;;;19.80;17.02;;;;;;;;;;5124637;27;20051;-83
2022/08/14 12:35:08;;;;;;;21.23;16.48;;;;;;;;;;5123995;27;20028;-83
2022/08/14 12:37:35;;;;;;;16.27;14.48;;;;;;;;;;5090186;28;20051;-86
2022/08/14 12:40:08;;;;;;;17.27;15.63;;;;;;;;;;5091328;28;20489;-83
2022/08/14 12:42:35;;;;;;;17.73;14.32;;;;;;;;;;5125460;27;20032;-84
2022/08/14 12:45:01;;;;;;;15.85;14.25;;;;;;;;;;5124366;27;20038;-85
2022/08/14 12:47:30;;;;;;;17.10;13.15;;;;;;;;;;5122394;27;20056;-86
2022/08/14 12:49:56;;;;;;;16.40;14.60;;;;;;;;;;5125948;27;20463;-86
2022/08/14 12:52:30;;;;;;;17.52;14.95;;;;;;;;;;5118063;27;20023;-86
2022/08/14 12:55:00;;;;;;;18.70;15.23;;;;;;;;;;5093464;28;20028;-87
2022/08/14 12:57:54;;;;;;;14.23;12.25;;;;;;;;;;5094427;28;20020;-84
2022/08/14 13:00:24;;;;;;;15.73;14.00;;;;;;;;;;5090690;28;20035;-85
2022/08/14 13:02:51;;;;;;;16.35;11.85;;;;;;;;;;5114746;27;20058;-85
2022/08/14 13:05:23;;;;;;;15.52;13.40;;;;;;;;;;5111577;27;20024;-86
2022/08/14 13:07:50;;;;;;;17.45;11.75;;;;;;;;;;5128419;27;20027;-86
2022/08/14 13:10:17;;;;;;;9.25;8.23;;;;;;;;;;5127479;27;20020;-83
2022/08/14 13:12:43;;;;;;;11.35;10.15;;;;;;;;;;5127975;27;20155;-85
2022/08/14 13:15:10;;;;;;;11.77;10.57;;;;;;;;;;5093442;28;20016;-85
2022/08/14 13:17:40;;;;;;;11.95;10.13;;;;;;;;;;5127394;27;20533;-86
2022/08/14 13:20:09;;;;;;;10.63;9.60;;;;;;;;;;5093048;28;20028;-84
2022/08/14 13:22:35;;;;;;;15.07;11.35;;;;;;;;;;5093228;28;20498;-85
2022/08/14 13:25:03;;;;;;;11.52;10.20;;;;;;;;;;5113801;27;20033;-84
2022/08/14 13:27:32;;;;;;;10.40;9.40;;;;;;;;;;5092792;28;20104;-84
2022/08/14 13:29:59;;;;;;;10.60;9.52;;;;;;;;;;5127081;27;20021;-84
2022/08/14 13:32:27;;;;;;;13.95;10.88;;;;;;;;;;5092473;28;20343;-85
2022/08/14 13:34:53;;;;;;;11.25;10.02;;;;;;;;;;5093082;28;20471;-85
2022/08/14 13:37:20;;;;;;;12.68;10.52;;;;;;;;;;5092946;28;20526;-82
2022/08/14 13:39:51;;;;;;;13.63;10.82;;;;;;;;;;5128067;27;20111;-85
2022/08/14 13:42:19;;;;;;;8.07;7.28;;;;;;;;;;5093735;28;20627;-85
2022/08/14 13:44:49;;;;;;;10.43;7.65;;;;;;;;;;5094038;28;20503;-84
2022/08/14 13:47:18;;;;;;;11.13;8.05;;;;;;;;;;5126802;27;20463;-86
2022/08/14 13:49:44;;;;;;;9.25;8.35;;;;;;;;;;5126362;27;20020;-83
2022/08/14 13:52:11;;;;;;;10.10;8.07;;;;;;;;;;5126967;27;20036;-83
2022/08/14 13:54:39;;;;;;;10.07;8.45;;;;;;;;;;5091680;28;20067;-84
2022/08/14 13:57:05;;;;;;;9.82;7.90;;;;;;;;;;5089239;28;20157;-83
2022/08/14 13:59:34;;;;;;;7.82;6.63;;;;;;;;;;5104867;28;20017;-84
2022/08/14 14:02:07;;;;;;;9.88;7.53;;;;;;;;;;5125622;27;20491;-82
2022/08/14 14:04:38;;;;;;;8.07;7.15;;;;;;;;;;5113475;27;20021;-83
2022/08/14 14:07:06;;;;;;;12.32;8.82;;;;;;;;;;5091672;28;20103;-82
2022/08/14 14:09:33;;;;;;;7.75;6.95;;;;;;;;;;5126477;27;20020;-84
2022/08/14 14:11:59;;;;;;;8.60;7.68;;;;;;;;;;5126023;27;20024;-83
2022/08/14 14:14:26;;;;;;;8.43;7.63;;;;;;;;;;5126076;27;20597;-83
2022/08/14 14:16:52;;;;;;;7.20;6.50;;;;;;;;;;5090055;28;20027;-84
2022/08/14 14:19:19;;;;;;;7.78;6.72;;;;;;;;;;5113428;27;20118;-84
2022/08/14 14:21:45;;;;;;;7.18;6.10;;;;;;;;;;5091385;28;20060;-83
2022/08/14 14:24:11;;;;;;;7.70;6.72;;;;;;;;;;5092967;28;20024;-85
2022/08/14 14:26:38;;;;;;;7.88;7.13;;;;;;;;;;5094239;28;20031;-84
2022/08/14 14:29:05;;;;;;;10.75;6.95;;;;;;;;;;5091625;28;20028;-83
2022/08/14 14:31:32;;;;;;;7.85;6.78;;;;;;;;;;5091639;28;20024;-84
2022/08/14 14:34:01;;;;;;;6.53;5.82;;;;;;;;;;5125797;27;20107;-83
2022/08/14 14:36:31;;;;;;;6.20;5.60;;;;;;;;;;5092049;28;20051;-85
2022/08/14 14:39:00;;;;;;;6.55;5.18;;;;;;;;;;5125765;27;20479;-83